createdAt,value
2018-08-18T00:00:21.403Z,27.13
2018-08-18T00:02:49.988Z,22.62
2018-08-18T00:05:18.824Z,26.45
2018-08-18T00:07:47.611Z,37.33
2018-08-18T00:10:20.162Z,30.08
2018-08-18T00:12:48.733Z,27.07
2018-08-18T00:15:17.278Z,34.55
2018-08-18T00:17:45.940Z,21.70
2018-08-18T00:20:17.304Z,22.60
2018-08-18T00:22:46.083Z,26.65
2018-08-18T00:25:14.693Z,30.00
2018-08-18T00:27:43.349Z,26.87
2018-08-18T00:30:17.218Z,22.93
2018-08-18T00:32:45.893Z,22.58
2018-08-18T00:35:14.398Z,21.33
2018-08-18T00:37:42.928Z,18.75
2018-08-18T00:40:12.746Z,21.00
2018-08-18T00:42:41.825Z,21.27
2018-08-18T00:45:11.975Z,27.90
2018-08-18T00:47:41.036Z,23.22
2018-08-18T00:50:11.132Z,21.52
2018-08-18T00:52:39.951Z,25.90
2018-08-18T00:55:08.479Z,22.73
2018-08-18T00:57:37.036Z,23.98
2018-08-18T01:00:06.664Z,24.90
2018-08-18T01:02:35.632Z,34.83
2018-08-18T01:05:04.918Z,28.70
2018-08-18T01:07:33.607Z,22.75
2018-08-18T01:10:02.881Z,27.30
2018-08-18T01:12:31.630Z,31.75
2018-08-18T01:15:00.118Z,40.55
2018-08-18T01:17:28.710Z,40.98
2018-08-18T01:19:58.160Z,34.58
2018-08-18T01:22:26.724Z,40.70
2018-08-18T01:24:55.250Z,38.55
2018-08-18T01:27:23.789Z,33.30
2018-08-18T01:29:57.782Z,34.88
2018-08-18T01:32:26.345Z,37.42
2018-08-18T01:34:55.200Z,32.60
2018-08-18T01:37:23.750Z,31.17
2018-08-18T01:39:54.321Z,36.73
2018-08-18T01:42:23.512Z,34.33
2018-08-18T01:44:52.593Z,39.67
2018-08-18T01:47:21.490Z,34.92
2018-08-18T01:49:50.022Z,35.23
2018-08-18T01:52:20.610Z,54.65
2018-08-18T01:54:49.118Z,42.90
2018-08-18T01:57:19.051Z,35.38
2018-08-18T01:59:48.146Z,43.45
2018-08-18T02:02:22.229Z,42.05
2018-08-18T02:04:51.144Z,28.02
2018-08-18T02:07:26.632Z,33.35
2018-08-18T02:09:55.661Z,31.77
2018-08-18T02:12:24.575Z,39.95
2018-08-18T02:14:53.434Z,46.68
2018-08-18T02:17:37.377Z,38.60
2018-08-18T02:20:07.783Z,40.48
2018-08-18T02:22:36.280Z,47.10
2018-08-18T02:25:05.998Z,36.95
2018-08-18T02:27:34.618Z,33.90
2018-08-18T02:30:16.605Z,32.42
2018-08-18T02:32:45.117Z,41.98
2018-08-18T02:35:13.738Z,37.60
2018-08-18T02:37:42.267Z,29.52
2018-08-18T02:40:13.552Z,35.30
2018-08-18T02:42:42.165Z,32.33
2018-08-18T02:45:12.106Z,44.03
2018-08-18T02:47:40.780Z,33.35
2018-08-18T02:50:10.591Z,43.75
2018-08-18T02:52:39.409Z,33.08
2018-08-18T02:55:10.037Z,36.77
2018-08-18T02:57:41.925Z,32.42
2018-08-18T03:00:39.129Z,33.65
2018-08-18T03:03:07.682Z,41.30
2018-08-18T03:05:36.168Z,32.70
2018-08-18T03:08:04.781Z,45.78
2018-08-18T03:10:34.696Z,41.65
2018-08-18T03:13:03.302Z,43.63
2018-08-18T03:16:06.699Z,37.40
2018-08-18T03:18:47.052Z,46.95
2018-08-18T03:21:15.968Z,31.12
2018-08-18T03:23:56.283Z,46.90
2018-08-18T03:26:59.095Z,42.25
2018-08-18T03:29:28.781Z,37.28
2018-08-18T03:31:57.482Z,52.17
2018-08-18T03:34:26.003Z,37.35
2018-08-18T03:36:55.879Z,37.67
2018-08-18T03:39:29.406Z,31.42
2018-08-18T03:42:01.048Z,47.58
2018-08-18T03:44:29.562Z,33.73
2018-08-18T03:46:58.132Z,37.93
2018-08-18T03:49:26.619Z,31.87
2018-08-18T03:51:55.995Z,43.90
2018-08-18T03:54:24.538Z,42.45
2018-08-18T03:56:53.045Z,43.35
2018-08-18T03:59:21.535Z,40.67
2018-08-18T04:01:58.360Z,45.43
2018-08-18T04:04:28.224Z,50.63
2018-08-18T04:06:57.977Z,51.30
2018-08-18T04:09:28.792Z,52.55
2018-08-18T04:11:58.825Z,41.55
2018-08-18T04:14:37.540Z,50.28
2018-08-18T04:17:14.357Z,62.98
2018-08-18T04:19:42.915Z,46.85
2018-08-18T04:22:11.438Z,45.65
2018-08-18T04:24:45.704Z,51.40
2018-08-18T04:27:20.458Z,43.85
2018-08-18T04:29:50.134Z,42.38
2018-08-18T04:32:18.633Z,35.78
2018-08-18T04:34:47.166Z,36.05
2018-08-18T04:37:15.720Z,38.65
2018-08-18T04:39:44.236Z,44.13
2018-08-18T04:42:12.743Z,44.73
2018-08-18T04:44:41.320Z,37.88
2018-08-18T04:47:16.333Z,41.58
2018-08-18T04:49:44.957Z,40.95
2018-08-18T04:52:13.448Z,42.83
2018-08-18T04:54:41.969Z,44.98
2018-08-18T04:57:10.518Z,49.23
2018-08-18T04:59:38.999Z,50.00
2018-08-18T05:02:07.538Z,46.60
2018-08-18T05:04:36.056Z,49.80
2018-08-18T05:07:04.620Z,39.95
2018-08-18T05:09:33.105Z,49.85
2018-08-18T05:12:01.786Z,56.18
2018-08-18T05:14:30.292Z,50.63
2018-08-18T05:16:58.810Z,59.98
2018-08-18T05:19:27.334Z,61.23
2018-08-18T05:21:55.844Z,65.05
2018-08-18T05:24:26.212Z,77.08
2018-08-18T05:26:55.739Z,74.12
2018-08-18T05:29:24.334Z,71.62
2018-08-18T05:31:52.844Z,74.97
2018-08-18T05:34:21.503Z,91.22
2018-08-18T05:36:50.002Z,68.42
2018-08-18T05:39:18.518Z,66.07
2018-08-18T05:41:47.213Z,54.37
2018-08-18T05:44:15.741Z,51.23
2018-08-18T05:46:44.256Z,55.53
2018-08-18T05:49:16.831Z,56.97
2018-08-18T05:51:48.208Z,38.20
2018-08-18T05:54:22.287Z,41.17
2018-08-18T05:56:50.847Z,28.80
2018-08-18T05:59:19.382Z,36.60
2018-08-18T06:01:47.948Z,27.33
2018-08-18T06:04:17.929Z,27.60
2018-08-18T06:06:47.434Z,21.50
2018-08-18T06:09:17.283Z,25.20
2018-08-18T06:11:46.041Z,21.77
2018-08-18T06:14:15.242Z,18.53
2018-08-18T06:16:44.362Z,21.20
2018-08-18T06:19:13.022Z,15.87
2018-08-18T06:21:41.591Z,14.37
2018-08-18T06:24:10.560Z,15.93
2018-08-18T06:26:39.192Z,19.83
2018-08-18T06:29:07.738Z,15.87
2018-08-18T06:31:50.592Z,13.10
2018-08-18T06:34:19.099Z,18.73
2018-08-18T06:36:47.719Z,11.40
2018-08-18T06:39:16.258Z,15.73
2018-08-18T06:41:44.978Z,7.93
2018-08-18T06:44:14.385Z,8.17
2018-08-18T06:46:42.923Z,16.93
2018-08-18T06:49:11.494Z,7.80
2018-08-18T06:51:40.022Z,15.50
2018-08-18T06:54:08.574Z,7.73
2018-08-18T06:56:37.062Z,6.17
2018-08-18T06:59:09.485Z,5.67
2018-08-18T07:01:38.420Z,12.00
2018-08-18T07:04:14.213Z,8.57
2018-08-18T07:06:42.722Z,7.20
2018-08-18T07:09:11.219Z,11.47
2018-08-18T07:11:39.804Z,5.30
2018-08-18T07:14:08.403Z,6.73
2018-08-18T07:16:36.899Z,3.37
2018-08-18T07:19:06.087Z,6.63
2018-08-18T07:21:34.607Z,5.17
2018-08-18T07:24:03.101Z,12.03
2018-08-18T07:26:31.823Z,3.40
2018-08-18T07:29:00.471Z,4.83
2018-08-18T07:31:28.827Z,2.97
2018-08-18T07:33:57.503Z,9.20
2018-08-18T07:36:26.091Z,16.20
2018-08-18T07:38:54.739Z,5.77
2018-08-18T07:41:23.264Z,5.97
2018-08-18T07:43:51.853Z,6.73
2018-08-18T07:46:20.411Z,5.80
2018-08-18T07:48:48.930Z,9.40
2018-08-18T07:51:17.409Z,3.00
2018-08-18T07:53:45.958Z,5.13
2018-08-18T07:56:14.565Z,2.23
2018-08-18T07:58:43.055Z,4.57
2018-08-18T08:01:11.553Z,5.67
2018-08-18T08:03:40.077Z,3.73
2018-08-18T08:06:09.001Z,3.87
2018-08-18T08:08:42.835Z,2.10
2018-08-18T08:11:13.651Z,3.23
2018-08-18T08:13:42.209Z,4.73
2018-08-18T08:16:10.897Z,2.53
2018-08-18T08:18:39.436Z,4.00
2018-08-18T08:21:08.027Z,10.30
2018-08-18T08:23:36.616Z,4.73
2018-08-18T08:26:05.135Z,10.77
2018-08-18T08:28:33.677Z,3.80
2018-08-18T08:31:02.267Z,4.67
2018-08-18T08:33:37.738Z,5.97
2018-08-18T08:36:14.696Z,5.50
2018-08-18T08:38:52.007Z,7.03
2018-08-18T08:41:22.827Z,6.87
2018-08-18T08:43:51.364Z,3.43
2018-08-18T08:46:20.312Z,3.70
2018-08-18T08:48:56.672Z,4.63
2018-08-18T08:51:25.790Z,5.90
2018-08-18T08:53:55.715Z,4.40
2018-08-18T08:56:29.636Z,6.87
2018-08-18T08:58:58.310Z,2.03
2018-08-18T09:01:26.779Z,1.93
2018-08-18T09:07:07.280Z,4.03
2018-08-18T09:09:35.864Z,7.60
2018-08-18T09:12:04.479Z,6.63
2018-08-18T09:14:33.035Z,3.67
2018-08-18T09:17:01.595Z,4.50
2018-08-18T09:19:30.398Z,4.17
2018-08-18T09:22:02.410Z,2.67
2018-08-18T09:24:31.874Z,2.90
2018-08-18T09:27:02.112Z,2.23
2018-08-18T09:29:36.029Z,1.70
2018-08-18T09:32:04.659Z,1.10
2018-08-18T09:34:40.583Z,8.87
2018-08-18T09:37:09.112Z,5.30
2018-08-18T09:39:37.665Z,6.57
2018-08-18T09:42:09.066Z,1.90
2018-08-18T09:44:44.643Z,3.90
2018-08-18T09:47:13.418Z,5.47
2018-08-18T09:49:42.690Z,3.03
2018-08-18T09:52:13.199Z,5.20
2018-08-18T09:54:41.778Z,5.93
2018-08-18T09:57:10.341Z,4.87
2018-08-18T09:59:38.979Z,7.03
2018-08-18T10:02:08.634Z,1.47
2018-08-18T10:04:37.144Z,2.50
2018-08-18T10:07:05.753Z,1.30
2018-08-18T10:09:34.330Z,5.87
2018-08-18T10:12:03.131Z,2.40
2018-08-18T10:14:31.654Z,2.70
2018-08-18T10:17:00.274Z,1.43
2018-08-18T10:19:30.952Z,3.70
2018-08-18T10:21:59.908Z,2.97
2018-08-18T10:24:28.785Z,8.57
2018-08-18T10:27:02.643Z,4.30
2018-08-18T10:29:31.232Z,1.93
2018-08-18T10:32:00.344Z,4.50
2018-08-18T10:34:30.121Z,3.20
2018-08-18T10:37:03.082Z,3.90
2018-08-18T10:39:31.769Z,0.90
2018-08-18T10:42:11.347Z,5.80
2018-08-18T10:44:50.306Z,4.83
2018-08-18T10:47:22.152Z,2.80
2018-08-18T10:50:01.973Z,6.33
2018-08-18T10:52:42.458Z,5.20
2018-08-18T10:55:12.140Z,1.23
2018-08-18T10:57:53.056Z,1.00
2018-08-18T11:00:23.540Z,3.60
2018-08-18T11:02:57.268Z,0.70
2018-08-18T11:05:26.751Z,1.27
2018-08-18T11:08:01.493Z,2.23
2018-08-18T11:10:31.643Z,4.00
2018-08-18T11:13:00.423Z,1.53
2018-08-18T11:15:29.015Z,1.47
2018-08-18T11:17:58.193Z,4.60
2018-08-18T11:20:28.187Z,3.57
2018-08-18T11:23:01.660Z,5.37
2018-08-18T11:25:45.949Z,1.07
2018-08-18T11:28:15.223Z,2.87
2018-08-18T11:30:43.932Z,2.53
2018-08-18T11:33:22.844Z,2.47
2018-08-18T11:35:51.366Z,5.77
2018-08-18T11:38:19.857Z,1.13
2018-08-18T11:40:48.382Z,1.17
2018-08-18T11:43:17.531Z,4.57
2018-08-18T11:45:46.393Z,6.37
2018-08-18T11:48:23.857Z,3.53
2018-08-18T11:50:53.672Z,3.70
2018-08-18T11:53:22.156Z,8.80
2018-08-18T11:55:50.749Z,3.43
2018-08-18T11:58:20.498Z,2.20
2018-08-18T12:00:55.427Z,4.77
2018-08-18T12:03:26.683Z,5.83
2018-08-18T12:05:56.499Z,4.00
2018-08-18T12:08:31.099Z,4.10
2018-08-18T12:11:01.339Z,7.40
2018-08-18T12:13:35.147Z,1.57
2018-08-18T12:16:11.843Z,7.63
2018-08-18T12:18:42.020Z,2.10
2018-08-18T12:21:10.939Z,6.53
2018-08-18T12:23:42.814Z,7.07
2018-08-18T12:26:20.074Z,6.70
2018-08-18T12:28:50.010Z,3.40
2018-08-18T12:31:21.028Z,2.93
2018-08-18T12:33:49.586Z,2.50
2018-08-18T12:36:18.555Z,2.13
2018-08-18T12:38:49.783Z,1.83
2018-08-18T12:41:18.350Z,1.00
2018-08-18T12:43:48.655Z,2.60
2018-08-18T12:46:18.471Z,0.93
2018-08-18T12:48:48.379Z,2.63
2018-08-18T12:51:18.023Z,1.00
2018-08-18T12:53:56.310Z,4.43
2018-08-18T12:56:26.292Z,1.43
2018-08-18T12:58:54.805Z,5.27
2018-08-18T13:01:40.091Z,1.93
2018-08-18T13:04:11.099Z,6.27
2018-08-18T13:06:46.000Z,3.93
2018-08-18T13:09:15.896Z,5.23
2018-08-18T13:11:46.099Z,2.20
2018-08-18T13:14:18.149Z,3.63
2018-08-18T13:16:46.692Z,4.33
2018-08-18T13:19:17.080Z,2.10
2018-08-18T13:21:45.785Z,3.90
2018-08-18T13:24:14.453Z,3.33
2018-08-18T13:26:43.075Z,2.90
2018-08-18T13:29:11.683Z,5.93
2018-08-18T13:31:42.147Z,2.30
2018-08-18T13:34:12.354Z,1.87
2018-08-18T13:36:42.098Z,2.60
2018-08-18T13:39:13.853Z,5.13
2018-08-18T13:41:43.583Z,2.80
2018-08-18T13:44:12.462Z,3.23
2018-08-18T13:46:44.777Z,3.70
2018-08-18T13:49:13.298Z,1.77
2018-08-18T13:51:41.847Z,3.57
2018-08-18T13:54:10.466Z,3.10
2018-08-18T13:56:39.006Z,2.30
2018-08-18T13:59:07.620Z,1.37
2018-08-18T14:01:40.322Z,3.50
2018-08-18T14:04:19.146Z,2.00
2018-08-18T14:06:52.848Z,1.90
2018-08-18T14:09:21.639Z,2.83
2018-08-18T14:11:51.262Z,3.50
2018-08-18T14:14:19.792Z,2.47
2018-08-18T14:16:51.151Z,2.40
2018-08-18T14:19:21.469Z,2.30
2018-08-18T14:21:54.329Z,3.53
2018-08-18T14:24:27.099Z,1.63
2018-08-18T14:27:00.506Z,3.77
2018-08-18T14:29:30.603Z,2.53
2018-08-18T14:31:59.374Z,2.20
2018-08-18T14:34:27.950Z,4.00
2018-08-18T14:37:05.710Z,3.63
2018-08-18T14:39:38.127Z,3.37
2018-08-18T14:42:06.995Z,7.77
2018-08-18T14:44:36.063Z,1.97
2018-08-18T14:47:04.692Z,1.70
2018-08-18T14:49:33.247Z,4.13
2018-08-18T14:52:02.029Z,4.40
2018-08-18T14:54:31.686Z,3.27
2018-08-18T14:57:01.740Z,4.33
2018-08-18T14:59:35.734Z,1.50
2018-08-18T15:02:06.296Z,5.57
2018-08-18T15:04:35.555Z,8.93
2018-08-18T15:07:04.327Z,2.00
2018-08-18T15:09:39.632Z,1.97
2018-08-18T15:12:08.200Z,4.73
2018-08-18T15:14:36.728Z,3.63
2018-08-18T15:17:05.460Z,2.40
2018-08-18T15:19:34.178Z,3.90
2018-08-18T15:22:10.481Z,2.53
2018-08-18T15:24:39.162Z,7.83
2018-08-18T15:27:08.060Z,3.43
2018-08-18T15:29:36.596Z,5.33
2018-08-18T15:32:05.325Z,1.80
2018-08-18T15:34:33.860Z,3.07
2018-08-18T15:37:02.423Z,2.83
2018-08-18T15:39:31.054Z,6.07
2018-08-18T15:42:00.704Z,4.20
2018-08-18T15:44:29.239Z,3.23
2018-08-18T15:46:58.486Z,4.20
2018-08-18T15:49:27.275Z,3.23
2018-08-18T15:51:56.093Z,4.70
2018-08-18T15:54:25.548Z,2.53
2018-08-18T15:56:54.109Z,3.93
2018-08-18T15:59:22.709Z,3.80
2018-08-18T16:01:51.246Z,3.43
2018-08-18T16:04:19.782Z,4.87
2018-08-18T16:06:48.315Z,3.40
2018-08-18T16:09:16.865Z,3.13
2018-08-18T16:11:45.386Z,8.07
2018-08-18T16:14:13.911Z,4.43
2018-08-18T16:16:57.378Z,34.70
2018-08-18T16:19:26.248Z,12.50
2018-08-18T16:21:55.541Z,3.90
2018-08-18T16:24:33.996Z,6.23
2018-08-18T16:27:06.860Z,6.80
2018-08-18T16:29:36.004Z,8.93
2018-08-18T16:32:23.583Z,4.67
2018-08-18T16:34:59.375Z,5.30
2018-08-18T16:37:28.423Z,3.37
2018-08-18T16:39:57.534Z,5.17
2018-08-18T16:42:26.104Z,4.40
2018-08-18T16:44:54.630Z,14.10
2018-08-18T16:47:23.175Z,10.30
2018-08-18T16:49:51.711Z,5.37
2018-08-18T16:52:20.206Z,12.13
2018-08-18T16:54:48.726Z,3.50
2018-08-18T16:57:17.245Z,9.53
2018-08-18T16:59:45.862Z,3.90
2018-08-18T17:02:29.889Z,12.83
2018-08-18T17:04:58.925Z,10.43
2018-08-18T17:07:27.936Z,11.90
2018-08-18T17:09:56.470Z,7.77
2018-08-18T17:12:29.044Z,8.07
2018-08-18T17:14:57.542Z,3.93
2018-08-18T17:17:26.572Z,7.07
2018-08-18T17:19:55.107Z,5.30
2018-08-18T17:22:23.654Z,3.53
2018-08-18T17:24:52.205Z,6.57
2018-08-18T17:27:20.704Z,4.63
2018-08-18T17:29:51.092Z,10.87
2018-08-18T17:32:19.639Z,8.47
2018-08-18T17:34:48.132Z,4.07
2018-08-18T17:37:16.678Z,5.13
2018-08-18T17:39:46.417Z,10.37
2018-08-18T17:42:14.976Z,11.70
2018-08-18T17:44:43.515Z,3.10
2018-08-18T17:47:12.285Z,4.73
2018-08-18T17:49:46.398Z,6.40
2018-08-18T17:52:15.149Z,6.10
2018-08-18T17:54:49.025Z,6.30
2018-08-18T17:57:17.533Z,3.97
2018-08-18T17:59:46.008Z,9.57
2018-08-18T18:02:15.961Z,6.33
2018-08-18T18:04:44.878Z,10.50
2018-08-18T18:07:13.452Z,11.70
2018-08-18T18:09:41.976Z,7.13
2018-08-18T18:12:33.383Z,7.60
2018-08-18T18:15:01.947Z,10.10
2018-08-18T18:17:30.448Z,7.43
2018-08-18T18:20:00.425Z,6.47
2018-08-18T18:23:01.810Z,5.97
2018-08-18T18:25:30.427Z,13.10
2018-08-18T18:28:00.996Z,11.23
2018-08-18T18:30:30.037Z,6.83
2018-08-18T18:32:58.854Z,5.00
2018-08-18T18:35:27.993Z,7.50
2018-08-18T18:37:59.874Z,11.07
2018-08-18T18:40:28.952Z,9.83
2018-08-18T18:42:57.500Z,6.77
2018-08-18T18:45:26.512Z,11.47
2018-08-18T18:47:55.044Z,5.73
2018-08-18T18:50:23.550Z,11.47
2018-08-18T18:52:52.158Z,11.17
2018-08-18T18:55:20.673Z,7.30
2018-08-18T18:58:06.742Z,5.53
2018-08-18T19:00:36.635Z,13.60
2018-08-18T19:03:06.899Z,10.10
2018-08-18T19:05:35.439Z,6.47
2018-08-18T19:08:11.705Z,9.73
2018-08-18T19:10:40.249Z,7.80
2018-08-18T19:13:09.542Z,6.70
2018-08-18T19:15:38.170Z,5.90
2018-08-18T19:18:07.704Z,13.87
2018-08-18T19:20:36.331Z,9.70
2018-08-18T19:23:11.347Z,9.60
2018-08-18T19:25:41.320Z,10.20
2018-08-18T19:28:11.737Z,10.13
2018-08-18T19:30:40.436Z,9.93
2018-08-18T19:33:09.417Z,11.23
2018-08-18T19:35:53.029Z,6.03
2018-08-18T19:38:22.797Z,9.43
2018-08-18T19:40:53.398Z,12.03
2018-08-18T19:43:24.170Z,8.03
2018-08-18T19:45:53.271Z,7.40
2018-08-18T19:48:22.989Z,5.63
2018-08-18T19:50:57.479Z,6.50
2018-08-18T19:53:31.148Z,7.60
2018-08-18T19:56:00.525Z,11.73
2018-08-18T19:58:29.577Z,21.50
2018-08-18T20:00:58.100Z,11.23
2018-08-18T20:03:26.992Z,7.77
2018-08-18T20:05:55.517Z,9.27
2018-08-18T20:08:25.375Z,8.13
2018-08-18T20:10:55.617Z,13.33
2018-08-18T20:13:25.528Z,13.50
2018-08-18T20:15:56.475Z,17.17
2018-08-18T20:18:24.996Z,7.80
2018-08-18T20:20:53.630Z,12.67
2018-08-18T20:23:22.203Z,10.83
2018-08-18T20:25:51.296Z,13.17
2018-08-18T20:28:19.837Z,8.07
2018-08-18T20:30:48.550Z,7.73
2018-08-18T20:33:17.047Z,13.63
2018-08-18T20:35:45.587Z,16.23
2018-08-18T20:38:14.122Z,10.73
2018-08-18T20:40:42.616Z,9.73
2018-08-18T20:43:11.165Z,15.00
2018-08-18T20:45:45.044Z,11.33
2018-08-18T20:48:15.264Z,11.00
2018-08-18T20:50:43.796Z,10.50
2018-08-18T20:53:12.900Z,8.93
2018-08-18T20:55:43.409Z,15.70
2018-08-18T20:58:12.062Z,9.10
2018-08-18T21:00:40.594Z,18.00
2018-08-18T21:03:09.157Z,16.97
2018-08-18T21:05:37.690Z,15.93
2018-08-18T21:08:11.562Z,11.57
2018-08-18T21:10:40.073Z,12.70
2018-08-18T21:13:08.576Z,15.07
2018-08-18T21:15:37.119Z,16.23
2018-08-18T21:18:11.910Z,19.60
2018-08-18T21:20:40.428Z,14.00
2018-08-18T21:23:08.945Z,11.10
2018-08-18T21:25:48.689Z,10.40
2018-08-18T21:28:18.413Z,12.40
2018-08-18T21:30:47.241Z,17.33
2018-08-18T21:33:15.818Z,8.80
2018-08-18T21:35:44.511Z,14.80
2018-08-18T21:38:13.116Z,11.67
2018-08-18T21:40:41.828Z,10.27
2018-08-18T21:43:43.161Z,14.30
2018-08-18T21:46:11.736Z,18.83
2018-08-18T21:48:46.869Z,11.83
2018-08-18T21:51:15.422Z,14.10
2018-08-18T21:53:44.854Z,15.20
2018-08-18T21:56:13.759Z,14.10
2018-08-18T21:58:42.305Z,14.83
2018-08-18T22:01:18.148Z,20.47
2018-08-18T22:03:47.833Z,14.40
2018-08-18T22:06:16.459Z,11.77
2018-08-18T22:08:44.976Z,19.93
2018-08-18T22:11:18.373Z,11.20
2018-08-18T22:13:53.495Z,12.60
2018-08-18T22:16:22.713Z,13.03
2018-08-18T22:18:57.028Z,18.57
2018-08-18T22:21:29.527Z,15.83
2018-08-18T22:24:00.275Z,11.47
2018-08-18T22:26:29.433Z,14.33
2018-08-18T22:29:05.241Z,13.50
2018-08-18T22:31:34.396Z,13.43
2018-08-18T22:34:04.171Z,12.40
2018-08-18T22:36:33.996Z,20.20
2018-08-18T22:39:03.140Z,19.57
2018-08-18T22:41:31.668Z,18.43
2018-08-18T22:44:00.232Z,22.93
2018-08-18T22:46:30.174Z,17.40
2018-08-18T22:48:58.837Z,20.03
2018-08-18T22:51:27.383Z,22.30
2018-08-18T22:53:56.544Z,14.07
2018-08-18T22:56:30.620Z,21.13
2018-08-18T22:59:02.116Z,26.37
2018-08-18T23:01:30.920Z,11.67
2018-08-18T23:03:59.622Z,20.73
2018-08-18T23:06:29.427Z,24.30
2018-08-18T23:08:57.939Z,13.80
2018-08-18T23:11:26.560Z,25.47
2018-08-18T23:13:55.095Z,18.63
2018-08-18T23:16:23.636Z,27.30
2018-08-18T23:18:52.341Z,21.43
2018-08-18T23:21:25.049Z,21.33
2018-08-18T23:23:53.601Z,14.90
2018-08-18T23:26:22.190Z,21.37
2018-08-18T23:28:50.691Z,22.47
2018-08-18T23:31:19.228Z,18.63
2018-08-18T23:33:47.739Z,19.07
2018-08-18T23:36:16.261Z,20.17
2018-08-18T23:38:59.433Z,18.77
2018-08-18T23:41:27.953Z,22.27
2018-08-18T23:43:56.468Z,24.23
2018-08-18T23:46:25.038Z,19.47
2018-08-18T23:48:53.560Z,22.13
2018-08-18T23:51:27.984Z,23.67
2018-08-18T23:53:56.530Z,22.43
2018-08-18T23:56:28.658Z,26.27
2018-08-18T23:58:58.243Z,20.23
